Time;durP1;ratioP1;P1;durP2;ratioP2;P2;SDS_P1;SDS_P2;PMS_P1;PMS_P2;Temp;Humidity;BMP_temperature;BMP_pressure;BME280_temperature;BME280_humidity;BME280_pressure;Samples;Min_cycle;Max_cycle;Signal;HPM_P1;HPM_P2
2021/07/21 00:01:25;;;;;;;11.27;8.60;;;;;;;26.05;51.92;99446.22;5060806;28;20044;-69
2021/07/21 00:03:50;;;;;;;11.68;8.07;;;;;;;26.00;51.70;99438.84;5056686;28;20036;-72
2021/07/21 00:06:17;;;;;;;10.48;7.90;;;;;;;25.96;51.92;99442.38;5060186;28;20087;-72
2021/07/21 00:08:42;;;;;;;14.55;8.13;;;;;;;25.91;51.94;99445.91;5054485;28;20036;-69
2021/07/21 00:13:52;;;;;;;;;;;;;;;25.74;53.04;99448.06;5056886;28;20073;-69
2021/07/21 00:16:20;;;;;;;15.52;9.15;;;;;;;25.68;53.72;99447.22;5060044;28;20211;-69
2021/07/21 00:18:51;;;;;;;12.27;9.18;;;;;;;25.72;53.23;99447.50;5053659;28;20029;-71
2021/07/21 00:21:21;;;;;;;12.27;8.45;;;;;;;25.71;53.63;99459.44;5061156;28;20052;-71
2021/07/21 00:23:46;;;;;;;11.73;8.57;;;;;;;25.71;53.48;99457.53;5058086;28;20025;-70
2021/07/21 00:26:12;;;;;;;13.77;9.40;;;;;;;25.72;53.58;99466.50;5057044;28;20052;-70
2021/07/21 00:28:39;;;;;;;13.15;8.73;;;;;;;25.62;53.78;99458.28;5058766;28;20239;-69
2021/07/21 00:31:05;;;;;;;12.50;8.50;;;;;;;25.61;53.90;99452.06;5057914;28;20024;-69
2021/07/21 00:33:31;;;;;;;12.52;8.85;;;;;;;25.51;53.97;99459.34;5059241;28;20048;-72
2021/07/21 00:35:56;;;;;;;11.40;9.13;;;;;;;25.51;53.92;99453.94;5058555;28;20041;-72
2021/07/21 00:38:22;;;;;;;14.48;8.75;;;;;;;25.50;53.59;99463.97;5041553;28;20093;-70
2021/07/21 00:40:48;;;;;;;13.88;8.68;;;;;;;25.56;53.30;99454.75;5057918;28;20326;-69
2021/07/21 00:43:14;;;;;;;13.30;8.73;;;;;;;25.40;53.88;99453.09;5059046;28;20358;-69
2021/07/21 00:45:39;;;;;;;12.40;8.07;;;;;;;25.43;53.54;99464.22;5056880;28;20039;-69
2021/07/21 00:48:05;;;;;;;12.30;8.23;;;;;;;25.48;53.21;99460.69;5061807;28;20032;-72
2021/07/21 00:50:31;;;;;;;11.80;8.13;;;;;;;25.31;53.28;99451.97;5057751;28;20033;-72
2021/07/21 00:52:56;;;;;;;12.57;8.43;;;;;;;25.29;53.82;99465.78;5055219;28;20036;-71
2021/07/21 00:55:22;;;;;;;17.25;8.68;;;;;;;25.18;53.96;99458.69;5058194;28;20025;-69
2021/07/21 00:57:48;;;;;;;13.05;8.63;;;;;;;25.28;53.69;99466.03;5054687;28;20344;-71
2021/07/21 01:00:19;;;;;;;13.93;8.13;;;;;;;25.30;54.01;99469.31;5057913;28;20096;-69
2021/07/21 01:02:46;;;;;;;18.67;8.32;;;;;;;25.48;53.06;99470.72;5057896;28;20033;-69
2021/07/21 01:05:19;;;;;;;12.88;8.20;;;;;;;25.27;53.73;99467.94;5060008;28;20029;-70
2021/07/21 01:07:48;;;;;;;11.23;8.30;;;;;;;25.27;53.62;99462.53;5054664;28;20048;-72
2021/07/21 01:10:17;;;;;;;11.77;7.82;;;;;;;25.33;53.51;99460.66;5057698;28;20104;-72
2021/07/21 01:13:10;;;;;;;13.32;8.20;;;;;;;25.25;53.80;99464.69;5038488;28;20050;-69
2021/07/21 01:15:47;;;;;;;15.15;8.10;;;;;;;25.23;54.04;99460.59;5060791;28;20025;-70
2021/07/21 01:18:25;;;;;;;12.05;7.25;;;;;;;25.26;53.58;99463.59;5055586;28;20037;-69
2021/07/21 01:21:26;;;;;;;15.02;7.78;;;;;;;25.21;53.66;99465.47;5061909;28;20225;-69
2021/07/21 01:24:11;;;;;;;12.43;7.78;;;;;;;25.19;53.69;99462.22;5055278;28;20031;-72
2021/07/21 01:26:45;;;;;;;15.35;7.95;;;;;;;25.17;53.75;99465.19;5052407;28;20242;-70
2021/07/21 01:29:11;;;;;;;12.05;7.97;;;;;;;25.18;53.64;99461.41;5059564;28;20054;-69
2021/07/21 01:31:41;;;;;;;10.70;7.93;;;;;;;25.19;53.66;99467.63;5056666;28;20036;-69
2021/07/21 01:34:09;;;;;;;12.65;7.70;;;;;;;25.23;53.57;99472.25;5057368;28;20029;-69
2021/07/21 01:36:40;;;;;;;15.68;8.00;;;;;;;25.18;53.55;99461.41;5057388;28;20036;-72
2021/07/21 01:39:14;;;;;;;10.13;8.07;;;;;;;25.18;53.30;99458.69;5058669;28;20032;-71
2021/07/21 01:41:51;;;;;;;;;;;;;;;25.16;53.18;99460.03;5055079;28;20087;-69
2021/07/21 01:44:21;;;;;;;12.82;8.00;;;;;;;25.03;53.69;99470.28;5055063;28;20011;-69
2021/07/21 01:46:52;;;;;;;14.10;7.70;;;;;;;25.08;53.50;99458.66;5054053;28;20098;-69
2021/07/21 01:49:19;;;;;;;15.32;7.85;;;;;;;25.02;53.77;99468.66;5060426;28;20040;-69
2021/07/21 01:51:46;;;;;;;12.77;7.38;;;;;;;25.02;53.61;99455.09;5056741;28;20049;-72
2021/07/21 01:54:12;;;;;;;11.23;8.05;;;;;;;24.92;54.03;99463.09;5057487;28;20057;-71
2021/07/21 01:56:38;;;;;;;14.27;7.38;;;;;;;24.92;53.95;99459.59;5055651;28;20060;-69
2021/07/21 01:59:06;;;;;;;12.57;8.07;;;;;;;24.97;53.68;99465.91;5056966;28;20041;-70
2021/07/21 02:01:33;;;;;;;12.43;7.65;;;;;;;24.88;54.04;99461.19;5029499;28;20203;-69
2021/07/21 02:04:00;;;;;;;11.50;7.50;;;;;;;24.87;54.03;99473.09;5054573;28;20049;-69
2021/07/21 02:06:30;;;;;;;10.48;7.07;;;;;;;24.85;53.77;99473.34;5057776;28;20084;-69
2021/07/21 02:08:57;;;;;;;13.48;7.90;;;;;;;24.93;53.72;99472.06;5055402;28;20054;-72
2021/07/21 02:11:24;;;;;;;15.20;8.07;;;;;;;24.78;54.01;99476.31;5057346;28;20381;-72
2021/07/21 02:13:50;;;;;;;13.60;7.85;;;;;;;24.84;53.66;99477.97;5052685;28;20048;-70
2021/07/21 02:16:17;;;;;;;13.73;7.63;;;;;;;24.91;53.43;99474.19;5058306;28;20173;-70
2021/07/21 02:18:47;;;;;;;11.45;7.60;;;;;;;24.85;53.51;99481.47;5055905;28;20041;-69
2021/07/21 02:21:13;;;;;;;12.63;7.78;;;;;;;24.92;53.34;99490.19;5059069;28;20080;-69
2021/07/21 02:23:38;;;;;;;12.93;7.57;;;;;;;24.81;53.34;99486.59;5054361;28;20331;-71
2021/07/21 02:26:04;;;;;;;14.45;7.22;;;;;;;24.71;53.59;99480.31;5059270;28;20071;-71
2021/07/21 02:28:30;;;;;;;12.63;7.95;;;;;;;24.70;53.86;99490.31;5053173;28;20048;-70
2021/07/21 02:30:59;;;;;;;14.45;7.53;;;;;;;24.71;53.83;99494.66;5057952;28;20238;-69
2021/07/21 02:33:45;;;;;;;19.63;8.40;;;;;;;24.65;54.09;99494.88;5056066;28;20041;-69
2021/07/21 02:36:10;;;;;;;16.23;7.72;;;;;;;24.66;53.90;99500.03;5054291;28;20025;-69
2021/07/21 02:38:38;;;;;;;16.85;8.27;;;;;;;24.66;54.01;99497.34;5056194;28;20235;-72
2021/07/21 02:41:03;;;;;;;12.75;7.88;;;;;;;24.66;53.58;99494.63;5037066;28;20021;-72
2021/07/21 02:43:29;;;;;;;13.27;7.70;;;;;;;24.63;53.71;99500.56;5056865;28;20051;-70
2021/07/21 02:45:55;;;;;;;12.55;8.27;;;;;;;24.60;53.80;99503.78;5058379;28;20039;-69
2021/07/21 02:48:20;;;;;;;16.17;8.23;;;;;;;24.58;53.76;99505.94;5052863;28;20035;-69
2021/07/21 02:50:48;;;;;;;15.05;8.50;;;;;;;24.69;53.46;99512.25;5057030;28;20036;-69
2021/07/21 02:53:22;;;;;;;19.27;9.23;;;;;;;24.62;53.35;99509.75;5054545;28;20037;-72
2021/07/21 02:55:56;;;;;;;18.25;8.63;;;;;;;24.57;53.57;99498.91;5057496;28;20056;-72
2021/07/21 02:59:00;;;;;;;21.20;8.70;;;;;;;24.63;53.40;99500.56;5056182;28;20091;-69
2021/07/21 03:01:28;;;;;;;19.70;9.00;;;;;;;24.64;52.92;99504.91;5030285;28;20282;-69
2021/07/21 03:03:54;;;;;;;20.85;9.20;;;;;;;24.57;53.63;99512.44;5053266;28;20056;-70
2021/07/21 03:06:22;;;;;;;15.55;9.18;;;;;;;24.60;53.52;99509.22;5056591;28;20108;-69
2021/07/21 03:08:49;;;;;;;15.38;8.82;;;;;;;24.56;53.63;99510.78;5055516;28;20051;-72
2021/07/21 03:11:16;;;;;;;18.63;9.00;;;;;;;24.60;53.41;99511.09;5056782;28;20256;-71
2021/07/21 03:13:47;;;;;;;22.42;9.10;;;;;;;24.55;53.52;99505.66;5056703;28;20252;-69
2021/07/21 03:16:15;;;;;;;16.48;9.65;;;;;;;24.66;53.32;99505.47;5054017;28;20083;-69
2021/07/21 03:18:45;;;;;;;18.58;9.57;;;;;;;24.65;53.07;99501.13;5056756;28;20013;-69
2021/07/21 03:21:13;;;;;;;17.13;9.27;;;;;;;24.62;53.22;99504.34;5055665;28;20040;-71
2021/07/21 03:23:38;;;;;;;20.70;9.57;;;;;;;24.56;53.27;99502.69;5036844;28;20033;-72
2021/07/21 03:26:07;;;;;;;25.20;9.32;;;;;;;24.58;53.10;99507.84;5061202;28;20105;-70
2021/07/21 03:28:33;;;;;;;11.63;8.77;;;;;;;24.66;53.00;99516.28;5059790;28;20051;-69
2021/07/21 03:30:59;;;;;;;14.95;9.25;;;;;;;24.74;52.70;99515.81;5059967;28;20222;-69
2021/07/21 03:33:25;;;;;;;15.18;9.18;;;;;;;24.72;52.84;99512.53;5059051;28;20025;-69
2021/07/21 03:35:53;;;;;;;24.48;10.18;;;;;;;24.75;53.04;99525.56;5057919;28;20048;-72
2021/07/21 03:38:22;;;;;;;17.08;9.55;;;;;;;24.81;52.65;99534.53;5060058;28;20061;-72
2021/07/21 03:40:51;;;;;;;17.63;10.02;;;;;;;24.77;52.69;99525.31;5056207;28;20226;-70
2021/07/21 03:43:17;;;;;;;15.98;9.60;;;;;;;24.79;52.86;99545.63;5062664;28;20040;-69
2021/07/21 03:45:44;;;;;;;19.58;9.77;;;;;;;24.84;52.64;99548.38;5059484;28;20038;-69
2021/07/21 03:48:09;;;;;;;17.65;9.38;;;;;;;24.89;52.06;99539.47;5063871;28;20120;-69
2021/07/21 03:50:35;;;;;;;17.55;9.95;;;;;;;24.98;52.27;99547.97;5055336;28;20374;-72
2021/07/21 03:53:01;;;;;;;18.58;9.73;;;;;;;24.98;52.04;99545.28;5058414;28;20052;-71
2021/07/21 03:55:29;;;;;;;16.85;9.80;;;;;;;24.97;52.22;99544.47;5058620;28;20045;-70
2021/07/21 03:57:55;;;;;;;13.27;9.43;;;;;;;25.06;52.19;99547.50;5060956;28;20140;-69
2021/07/21 04:00:22;;;;;;;17.92;10.48;;;;;;;25.04;51.93;99547.75;5055074;28;20326;-70
2021/07/21 04:02:57;;;;;;;18.83;10.15;;;;;;;25.15;51.98;99551.34;5060499;28;20040;-70
2021/07/21 04:05:25;;;;;;;18.52;10.05;;;;;;;25.12;51.68;99546.44;5049986;28;20071;-71
2021/07/21 04:07:53;;;;;;;18.02;10.52;;;;;;;25.07;52.22;99555.34;5053031;28;20051;-72
2021/07/21 04:10:18;;;;;;;17.85;10.02;;;;;;;25.10;51.89;99548.59;5051082;28;20093;-72
2021/07/21 04:12:47;;;;;;;15.63;9.82;;;;;;;25.13;52.07;99557.03;5043295;28;20045;-70
2021/07/21 04:15:13;;;;;;;20.02;10.00;;;;;;;25.31;51.76;99563.91;5057395;28;20117;-69
2021/07/21 04:17:40;;;;;;;23.17;10.13;;;;;;;25.41;51.51;99563.13;5043962;28;20025;-69
2021/07/21 04:20:06;;;;;;;21.65;10.35;;;;;;;25.37;51.68;99567.44;5057823;28;20362;-71
2021/07/21 04:22:33;;;;;;;24.90;9.65;;;;;;;25.45;51.47;99566.94;5041816;28;20025;-72
2021/07/21 04:25:00;;;;;;;20.77;10.60;;;;;;;25.49;51.50;99554.50;5048557;28;20034;-70
2021/07/21 04:27:26;;;;;;;22.55;10.65;;;;;;;25.58;51.54;99574.59;5051056;28;20370;-69
2021/07/21 04:29:53;;;;;;;22.50;10.88;;;;;;;25.60;51.65;99574.34;5052028;28;20033;-69
2021/07/21 04:32:21;;;;;;;18.70;10.82;;;;;;;25.58;51.77;99577.31;5048166;28;20045;-69
2021/07/21 04:34:47;;;;;;;19.13;10.85;;;;;;;25.78;51.40;99585.56;5057649;28;20039;-72
2021/07/21 04:37:13;;;;;;;19.27;10.68;;;;;;;25.88;50.74;99579.34;5044167;28;20044;-72
2021/07/21 04:39:39;;;;;;;20.63;10.88;;;;;;;26.12;50.32;99582.44;5051192;28;20029;-69
2021/07/21 04:42:05;;;;;;;19.98;10.90;;;;;;;26.24;50.32;99579.47;5050197;28;20330;-69
2021/07/21 04:44:31;;;;;;;18.30;9.90;;;;;;;26.32;50.07;99571.66;5046121;28;20093;-70
2021/07/21 04:46:59;;;;;;;22.38;10.32;;;;;;;26.50;49.51;99580.34;5054120;28;20083;-70
2021/07/21 04:49:26;;;;;;;25.33;10.45;;;;;;;26.57;49.75;99583.63;5051870;28;20033;-72
2021/07/21 04:51:55;;;;;;;23.58;10.15;;;;;;;26.86;49.28;99582.00;5047551;28;20042;-72
2021/07/21 04:54:21;;;;;;;19.90;10.52;;;;;;;26.86;49.04;99586.59;5046819;28;20269;-70
2021/07/21 04:56:47;;;;;;;19.65;10.15;;;;;;;27.07;48.80;99596.44;5055499;28;20028;-70
2021/07/21 04:59:13;;;;;;;19.33;9.82;;;;;;;27.12;48.90;99595.59;5059424;28;20043;-69
2021/07/21 05:01:38;;;;;;;21.52;10.60;;;;;;;27.10;49.31;99597.78;5055396;28;20033;-69
2021/07/21 05:04:05;;;;;;;16.58;10.23;;;;;;;27.58;47.82;99593.59;5056066;28;20041;-72
2021/07/21 05:06:32;;;;;;;22.90;10.38;;;;;;;27.61;48.08;99601.22;5037822;28;20032;-72
2021/07/21 05:08:58;;;;;;;29.70;10.75;;;;;;;27.77;47.55;99599.25;5057608;28;20032;-70
2021/07/21 05:11:23;;;;;;;17.75;10.15;;;;;;;27.89;47.20;99586.97;5056130;28;20029;-70
2021/07/21 05:13:49;;;;;;;21.15;10.40;;;;;;;28.32;46.16;99600.94;5058611;28;20029;-70
2021/07/21 05:16:15;;;;;;;16.98;10.27;;;;;;;28.57;45.64;99583.59;5055489;28;20384;-72
2021/07/21 05:18:42;;;;;;;21.45;10.27;;;;;;;28.73;45.08;99596.00;5051141;28;20033;-72
2021/07/21 05:21:08;;;;;;;21.95;10.32;;;;;;;28.98;44.17;99592.28;5056008;28;20025;-70
2021/07/21 05:23:34;;;;;;;25.73;10.55;;;;;;;29.10;43.52;99600.06;5056510;28;20374;-70
2021/07/21 05:26:01;;;;;;;20.83;9.80;;;;;;;29.19;43.44;99595.63;5056301;28;20251;-70
2021/07/21 05:28:27;;;;;;;17.80;10.07;;;;;;;29.00;43.24;99598.25;5058330;28;20272;-70
2021/07/21 05:30:54;;;;;;;27.88;10.60;;;;;;;29.24;43.18;99601.84;5057053;28;20032;-72
2021/07/21 05:33:19;;;;;;;36.15;10.90;;;;;;;29.20;42.93;99603.53;5031720;28;20033;-72
2021/07/21 05:35:45;;;;;;;26.42;11.13;;;;;;;29.01;42.88;99599.06;5056077;28;20051;-70
2021/07/21 05:38:11;;;;;;;29.15;10.38;;;;;;;28.95;43.39;99602.94;5057115;28;20043;-70
2021/07/21 05:40:37;;;;;;;31.45;11.23;;;;;;;29.33;42.68;99603.97;5055448;28;20028;-70
2021/07/21 05:43:04;;;;;;;25.38;10.43;;;;;;;29.35;42.42;99605.28;5056836;28;20091;-72
2021/07/21 05:45:29;;;;;;;23.70;10.55;;;;;;;29.55;41.92;99604.28;5056931;28;20048;-72
2021/07/21 05:47:55;;;;;;;29.08;10.60;;;;;;;29.73;40.90;99614.44;5059878;28;20341;-70
2021/07/21 05:50:20;;;;;;;21.38;10.32;;;;;;;29.81;40.99;99610.25;5038017;28;20032;-70
2021/07/21 05:52:46;;;;;;;17.73;9.90;;;;;;;29.84;40.88;99613.22;5056596;28;20044;-70
2021/07/21 05:55:12;;;;;;;26.60;11.60;;;;;;;29.95;40.40;99610.34;5053253;28;20048;-72
2021/07/21 05:57:37;;;;;;;23.50;10.30;;;;;;;30.05;39.96;99615.69;5058289;28;20068;-73
2021/07/21 06:00:05;;;;;;;20.45;11.18;;;;;;;30.27;39.83;99599.59;5032442;28;20207;-70
2021/07/21 06:02:31;;;;;;;33.60;10.55;;;;;;;30.62;39.28;99606.44;5054983;28;20322;-70
2021/07/21 06:04:56;;;;;;;21.40;10.30;;;;;;;30.44;38.70;99601.78;5033485;28;20025;-70
2021/07/21 06:07:22;;;;;;;18.08;9.95;;;;;;;30.31;38.98;99608.00;5055854;28;20028;-72
2021/07/21 06:09:47;;;;;;;17.95;9.73;;;;;;;30.64;38.49;99614.34;5055791;28;20055;-73
2021/07/21 06:12:13;;;;;;;26.83;10.25;;;;;;;30.61;38.74;99615.75;5058033;28;20349;-71
2021/07/21 06:14:38;;;;;;;17.98;10.18;;;;;;;30.79;37.85;99617.66;5055214;28;20036;-70
2021/07/21 06:17:04;;;;;;;15.70;9.30;;;;;;;30.78;37.49;99609.75;5058450;28;20041;-72
2021/07/21 06:19:29;;;;;;;30.40;10.40;;;;;;;30.72;37.49;99608.22;5051790;28;20463;-73
2021/07/21 06:21:57;;;;;;;18.00;10.07;;;;;;;30.57;38.26;99605.69;5057349;28;20082;-72
2021/07/21 06:24:23;;;;;;;20.70;10.27;;;;;;;30.83;38.11;99606.94;5054142;28;20211;-70
2021/07/21 06:26:48;;;;;;;25.10;10.20;;;;;;;30.96;36.52;99611.63;5058762;28;20029;-70
2021/07/21 06:29:13;;;;;;;22.35;9.80;;;;;;;31.01;36.51;99613.47;5054033;28;20024;-72
2021/07/21 06:31:39;;;;;;;29.45;10.38;;;;;;;30.93;36.74;99617.69;5057064;28;20335;-73
2021/07/21 06:34:04;;;;;;;25.27;10.65;;;;;;;31.12;36.41;99612.16;5054679;28;20295;-73
2021/07/21 06:36:30;;;;;;;26.98;11.07;;;;;;;31.25;36.68;99605.97;5055750;28;20502;-70
2021/07/21 06:38:55;;;;;;;26.95;10.73;;;;;;;31.35;34.98;99591.28;5054000;28;20029;-70
2021/07/21 06:41:22;;;;;;;21.98;10.93;;;;;;;31.53;34.96;99592.31;5058209;28;20330;-73
2021/07/21 06:43:50;;;;;;;24.10;10.57;;;;;;;32.01;33.77;99598.19;5053802;28;20392;-73
2021/07/21 06:46:15;;;;;;;22.63;10.52;;;;;;;32.38;33.08;99597.13;5054536;28;20104;-71
2021/07/21 06:48:41;;;;;;;23.02;10.00;;;;;;;32.31;32.90;99600.28;5057032;28;20296;-70
2021/07/21 06:51:06;;;;;;;19.15;10.55;;;;;;;32.25;33.64;99604.28;5055957;28;20029;-70
2021/07/21 06:53:32;;;;;;;20.23;9.80;;;;;;;32.03;33.48;99579.50;5054123;28;20227;-73
2021/07/21 06:55:58;;;;;;;28.90;9.65;;;;;;;32.17;33.07;99595.91;5060214;28;20032;-73
2021/07/21 06:58:23;;;;;;;19.15;10.70;;;;;;;32.60;31.86;99585.38;5056952;28;20037;-70
2021/07/21 07:00:49;;;;;;;18.63;10.25;;;;;;;33.01;31.34;99590.66;5064555;28;21201;-70
2021/07/21 07:03:14;;;;;;;22.58;10.38;;;;;;;33.11;31.29;99581.34;5057981;28;20033;-70
2021/07/21 07:05:40;;;;;;;27.25;10.75;;;;;;;33.01;30.81;99587.91;5055682;28;20028;-73
2021/07/21 07:08:06;;;;;;;23.48;10.40;;;;;;;33.50;30.74;99586.91;5061231;28;20071;-73
2021/07/21 07:10:32;;;;;;;19.83;9.82;;;;;;;33.33;30.43;99573.13;5039577;28;20287;-71
2021/07/21 07:12:57;;;;;;;28.60;10.18;;;;;;;33.15;30.39;99576.84;5060597;28;20041;-70
2021/07/21 07:15:23;;;;;;;23.85;10.30;;;;;;;32.96;30.82;99583.38;5057784;28;20361;-70
2021/07/21 07:17:49;;;;;;;24.05;9.82;;;;;;;32.90;31.31;99576.41;5049310;28;20048;-73
2021/07/21 07:20:14;;;;;;;23.40;11.27;;;;;;;33.31;30.10;99586.34;5051832;28;20024;-72
2021/07/21 07:22:40;;;;;;;20.27;10.60;;;;;;;33.31;30.57;99589.09;5037823;28;20323;-71
2021/07/21 07:25:06;;;;;;;25.52;10.40;;;;;;;33.38;29.59;99578.47;5050163;28;20021;-70
2021/07/21 07:27:32;;;;;;;20.17;10.05;;;;;;;33.19;28.41;99584.13;5051531;28;20150;-73
2021/07/21 07:29:57;;;;;;;27.17;11.60;;;;;;;32.90;28.28;99583.81;5049153;28;20760;-73
2021/07/21 07:32:23;;;;;;;25.98;11.27;;;;;;;32.88;27.89;99586.88;5050197;28;20338;-70
2021/07/21 07:34:49;;;;;;;36.72;12.20;;;;;;;33.03;27.51;99577.44;5049768;28;20071;-70
2021/07/21 07:37:14;;;;;;;20.90;10.73;;;;;;;32.69;27.88;99587.03;5050578;28;20049;-70
2021/07/21 07:39:40;;;;;;;23.67;10.43;;;;;;;33.11;26.97;99582.16;5050026;28;20049;-73
2021/07/21 07:42:06;;;;;;;23.95;10.93;;;;;;;33.00;27.06;99581.63;5049224;28;20048;-73
2021/07/21 07:44:31;;;;;;;22.77;10.57;;;;;;;33.07;27.13;99588.59;5049857;28;20025;-70
2021/07/21 07:46:57;;;;;;;26.27;10.80;;;;;;;32.73;27.59;99583.69;5051419;28;20113;-70
2021/07/21 07:49:25;;;;;;;25.58;10.65;;;;;;;33.30;26.71;99580.03;5048790;28;20056;-70
2021/07/21 07:51:51;;;;;;;19.42;10.15;;;;;;;33.27;26.09;99586.09;5046198;28;20104;-73
2021/07/21 07:54:18;;;;;;;20.02;10.73;;;;;;;33.20;26.22;99577.53;5051246;28;20045;-73
2021/07/21 07:56:44;;;;;;;35.30;11.23;;;;;;;33.24;26.27;99575.75;5050058;28;20354;-70
2021/07/21 07:59:10;;;;;;;26.08;11.18;;;;;;;33.24;25.59;99572.22;5048868;28;20245;-70
2021/07/21 08:01:35;;;;;;;25.20;10.98;;;;;;;33.11;26.07;99589.56;5049212;28;20037;-70
2021/07/21 08:04:01;;;;;;;28.77;10.38;;;;;;;33.27;25.46;99579.81;5048710;28;20045;-73
2021/07/21 08:06:27;;;;;;;17.35;10.20;;;;;;;33.41;25.76;99577.03;5049041;28;20037;-73
2021/07/21 08:08:52;;;;;;;19.27;11.20;;;;;;;33.71;26.62;99583.56;5048429;28;20071;-70
2021/07/21 08:11:18;;;;;;;17.58;10.52;;;;;;;33.72;25.90;99576.94;5048644;28;20034;-70
2021/07/21 08:30:18;;;;;;;20.85;10.73;;;;;;;34.65;22.67;99569.16;5159749;27;20657;-68
2021/07/21 08:32:50;;;;;;;26.88;10.88;;;;;;;34.43;23.05;99559.16;5159766;27;20110;-69
2021/07/21 08:35:18;;;;;;;25.77;11.32;;;;;;;34.12;23.16;99577.69;5159556;27;20039;-69
2021/07/21 08:37:44;;;;;;;23.42;11.05;;;;;;;34.47;22.81;99581.31;5159572;27;20026;-68
2021/07/21 08:40:12;;;;;;;19.15;10.63;;;;;;;34.39;23.10;99582.13;5159651;27;20031;-68
2021/07/21 08:42:37;;;;;;;25.92;11.40;;;;;;;34.48;23.08;99566.44;5159349;27;20095;-68
2021/07/21 08:45:06;;;;;;;24.35;10.80;;;;;;;34.39;22.75;99563.69;5159401;27;20290;-69
2021/07/21 08:47:31;;;;;;;19.00;11.25;;;;;;;34.33;22.99;99581.44;5159376;27;20201;-69
2021/07/21 08:49:57;;;;;;;23.42;10.50;;;;;;;34.57;22.61;99572.72;5159124;27;20037;-68
2021/07/21 08:52:23;;;;;;;25.33;11.05;;;;;;;34.62;22.89;99578.06;5140861;27;20064;-68
2021/07/21 08:54:51;;;;;;;23.80;10.85;;;;;;;34.49;22.71;99571.59;5158448;27;20079;-68
2021/07/21 08:57:18;;;;;;;15.65;10.32;;;;;;;34.51;22.63;99574.03;5159410;27;20038;-69
2021/07/21 08:59:46;;;;;;;35.10;11.85;;;;;;;33.96;23.05;99577.34;5159005;27;20376;-69
2021/07/21 09:02:14;;;;;;;21.20;10.35;;;;;;;34.23;22.92;99579.78;5159276;27;20034;-69
2021/07/21 09:04:41;;;;;;;18.40;9.93;;;;;;;34.88;22.35;99559.59;5159109;27;20160;-68
2021/07/21 09:07:07;;;;;;;20.50;10.18;;;;;;;35.03;21.98;99571.19;5136859;27;20090;-68
2021/07/21 09:09:36;;;;;;;29.48;10.50;;;;;;;34.52;22.67;99570.16;5150243;27;20356;-68
2021/07/21 09:12:02;;;;;;;23.30;10.40;;;;;;;34.18;23.13;99565.41;5150952;27;20049;-69
2021/07/21 09:14:28;;;;;;;21.48;10.45;;;;;;;34.65;22.51;99566.41;5148511;27;20327;-68
2021/07/21 09:17:11;;;;;;;19.10;10.15;;;;;;;34.93;22.32;99572.38;5163950;27;20099;-68
2021/07/21 09:19:39;;;;;;;16.45;10.45;;;;;;;34.25;22.90;99571.22;5147740;27;20098;-68
2021/07/21 09:22:36;;;;;;;17.20;9.00;;;;;;;34.32;22.69;99559.75;5150936;27;20049;-69
2021/07/21 09:25:18;;;;;;;19.70;9.75;;;;;;;34.35;21.96;99565.47;5148156;27;20043;-69
2021/07/21 09:27:52;;;;;;;18.13;9.65;;;;;;;34.34;22.47;99566.59;5151353;27;20027;-69
2021/07/21 09:30:24;;;;;;;20.15;9.68;;;;;;;33.95;22.37;99540.84;5141120;27;20045;-68
2021/07/21 09:33:06;;;;;;;20.52;9.93;;;;;;;34.37;22.93;99560.47;5134057;27;20031;-68
2021/07/21 09:35:41;;;;;;;15.65;9.10;;;;;;;34.56;21.62;99558.16;5120984;27;20034;-68
2021/07/21 09:38:09;;;;;;;23.70;9.07;;;;;;;34.58;22.40;99555.91;5135965;27;20350;-69
2021/07/21 09:40:38;;;;;;;26.85;10.38;;;;;;;34.80;22.33;99551.34;5135955;27;20089;-69
2021/07/21 09:43:10;;;;;;;14.85;9.05;;;;;;;34.70;21.24;99557.19;5139403;27;20039;-68
2021/07/21 09:45:37;;;;;;;21.45;10.02;;;;;;;34.53;21.75;99558.00;5134469;27;20039;-68
2021/07/21 09:48:03;;;;;;;15.98;9.93;;;;;;;34.24;22.27;99556.69;5135008;27;20503;-68
2021/07/21 09:50:30;;;;;;;14.80;9.25;;;;;;;34.06;22.13;99555.06;5136490;27;20046;-69
2021/07/21 09:53:04;;;;;;;15.68;9.48;;;;;;;34.30;22.09;99554.59;5134769;27;20031;-69
2021/07/21 09:55:32;;;;;;;14.77;8.90;;;;;;;34.13;22.44;99552.63;5137172;27;20090;-69
2021/07/21 09:58:18;;;;;;;16.13;9.45;;;;;;;34.27;23.18;99536.78;5133947;27;20041;-68
2021/07/21 10:00:46;;;;;;;19.63;10.02;;;;;;;34.06;23.12;99549.56;5135715;27;20224;-68
2021/07/21 10:03:22;;;;;;;13.35;8.80;;;;;;;33.93;23.32;99542.28;5133355;27;20043;-68
2021/07/21 10:06:06;;;;;;;22.00;9.55;;;;;;;33.88;23.00;99523.22;5135793;27;20027;-69
2021/07/21 10:08:48;;;;;;;15.02;9.25;;;;;;;33.98;22.93;99541.31;5135011;27;20039;-68
2021/07/21 10:11:26;;;;;;;12.88;8.93;;;;;;;33.98;23.69;99531.13;5134856;27;20031;-68
2021/07/21 10:14:12;;;;;;;20.23;9.13;;;;;;;34.06;23.10;99530.34;5135803;27;20254;-68
2021/07/21 10:16:53;;;;;;;14.07;9.40;;;;;;;34.12;22.33;99514.50;5134053;27;20054;-68
2021/07/21 10:19:18;;;;;;;17.90;9.00;;;;;;;34.01;22.67;99519.50;5137050;27;20274;-68
2021/07/21 10:22:03;;;;;;;21.13;9.25;;;;;;;33.87;21.96;99522.41;5135046;27;20035;-68
2021/07/21 10:24:32;;;;;;;15.07;8.50;;;;;;;33.55;22.09;99520.06;5136714;27;20034;-68
2021/07/21 10:26:58;;;;;;;31.33;9.63;;;;;;;33.45;22.58;99512.13;5137415;27;20098;-68
2021/07/21 10:29:25;;;;;;;14.50;8.98;;;;;;;33.73;21.85;99509.91;5133951;27;20199;-68
2021/07/21 10:31:50;;;;;;;28.00;9.43;;;;;;;33.73;22.00;99504.44;5135671;27;20019;-69
2021/07/21 10:34:18;;;;;;;33.70;9.98;;;;;;;33.85;21.39;99504.63;5138010;27;20039;-68
2021/07/21 10:36:44;;;;;;;14.68;9.10;;;;;;;33.89;21.98;99500.13;5134170;27;20086;-68
2021/07/21 10:39:22;;;;;;;21.40;8.90;;;;;;;33.97;21.67;99496.56;5137949;27;20031;-68
2021/07/21 10:41:49;;;;;;;28.33;9.15;;;;;;;33.84;21.35;99509.31;5134894;27;20027;-68
2021/07/21 10:44:16;;;;;;;34.03;10.02;;;;;;;33.95;21.10;99507.88;5134369;27;20227;-68
2021/07/21 10:46:50;;;;;;;15.48;8.80;;;;;;;34.09;21.38;99496.72;5136385;27;20031;-68
2021/07/21 10:49:38;;;;;;;16.70;8.98;;;;;;;33.69;21.21;99493.28;5134760;27;20038;-68
2021/07/21 11:00:13;;;;;;;15.85;8.70;;;;;;;33.88;20.75;99485.56;5133208;27;20058;-68
2021/07/21 11:02:39;;;;;;;10.98;8.13;;;;;;;33.56;21.00;99489.53;5133716;27;20182;-68
2021/07/21 11:05:08;;;;;;;29.02;9.63;;;;;;;33.75;20.04;99485.69;5136190;27;20054;-68
2021/07/21 11:07:51;;;;;;;20.40;8.88;;;;;;;33.78;20.91;99485.84;5133120;27;20035;-69
2021/07/21 11:10:39;;;;;;;16.10;8.18;;;;;;;33.86;20.07;99473.28;5136637;27;20038;-68
2021/07/21 11:13:36;;;;;;;13.55;8.00;;;;;;;33.85;19.81;99468.94;5136268;27;20031;-68
2021/07/21 11:16:04;;;;;;;16.25;7.70;;;;;;;34.00;20.06;99468.44;5116003;27;20192;-68
2021/07/21 11:18:41;;;;;;;14.43;8.30;;;;;;;33.95;20.40;99465.84;5116033;27;20267;-68
2021/07/21 11:21:18;;;;;;;19.25;7.57;;;;;;;34.01;20.25;99463.75;5137659;27;20250;-69
2021/07/21 11:23:52;;;;;;;10.95;6.95;;;;;;;33.99;18.58;99469.56;5133801;27;20071;-69
2021/07/21 11:26:35;;;;;;;13.45;7.03;;;;;;;33.93;19.44;99470.88;5136485;27;20038;-69
2021/07/21 11:29:25;;;;;;;13.70;8.10;;;;;;;33.79;19.17;99471.00;5133554;27;20047;-68
2021/07/21 11:31:54;;;;;;;17.95;7.78;;;;;;;33.59;19.56;99469.69;5135937;27;20027;-69
2021/07/21 11:34:37;;;;;;;16.13;7.75;;;;;;;33.69;19.81;99465.00;5134366;27;20038;-69
2021/07/21 11:37:06;;;;;;;11.25;7.75;;;;;;;33.74;19.75;99459.38;5133910;27;20059;-69
2021/07/21 11:39:50;;;;;;;12.18;8.05;;;;;;;33.91;19.60;99456.66;5134507;27;20207;-69
2021/07/21 11:42:30;;;;;;;14.90;7.80;;;;;;;34.13;20.39;99447.41;5132782;27;20196;-69
2021/07/21 11:45:05;;;;;;;11.32;7.47;;;;;;;33.74;20.33;99451.13;5135264;27;20042;-69
2021/07/21 11:47:59;;;;;;;16.33;8.20;;;;;;;33.74;20.42;99451.94;5131922;27;20035;-69
2021/07/21 11:50:34;;;;;;;16.48;6.43;;;;;;;33.41;19.07;99457.06;5131582;27;20050;-69
2021/07/21 11:53:10;;;;;;;11.50;7.40;;;;;;;33.56;19.92;99434.66;5135744;27;20046;-69
2021/07/21 11:55:37;;;;;;;14.82;7.47;;;;;;;33.50;19.58;99446.91;5131267;27;20039;-69
2021/07/21 11:58:13;;;;;;;22.00;7.38;;;;;;;33.57;20.25;99449.19;5115855;27;20274;-69